sensor_id;sensor_type;location;lat;lon;timestamp;pressure;altitude;pressure_sealevel;temperature;humidity
25232;BME280;13176;51.140;6.290;2022-10-28T00:00:06;101130.69;;;20.84;73.07
25232;BME280;13176;51.140;6.290;2022-10-28T00:02:33;101086.69;;;20.62;73.25
25232;BME280;13176;51.140;6.290;2022-10-28T00:04:59;101131.84;;;20.78;73.42
25232;BME280;13176;51.140;6.290;2022-10-28T00:07:27;101141.81;;;20.73;73.89
25232;BME280;13176;51.140;6.290;2022-10-28T00:09:53;101100.47;;;20.51;73.97
25232;BME280;13176;51.140;6.290;2022-10-28T00:12:20;101128.91;;;20.66;74.04
25232;BME280;13176;51.140;6.290;2022-10-28T00:14:46;101103.25;;;20.48;74.63
25232;BME280;13176;51.140;6.290;2022-10-28T00:17:13;101083.72;;;20.32;74.87
25232;BME280;13176;51.140;6.290;2022-10-28T00:19:39;101103.19;;;20.50;74.93
25232;BME280;13176;51.140;6.290;2022-10-28T00:22:06;101089.72;;;20.36;75.26
25232;BME280;13176;51.140;6.290;2022-10-28T00:24:32;101100.75;;;20.45;74.88
25232;BME280;13176;51.140;6.290;2022-10-28T00:26:59;101089.31;;;20.26;75.38
25232;BME280;13176;51.140;6.290;2022-10-28T00:29:25;101089.44;;;20.23;75.62
25232;BME280;13176;51.140;6.290;2022-10-28T00:31:51;101084.94;;;20.25;75.88
25232;BME280;13176;51.140;6.290;2022-10-28T00:34:18;101090.16;;;20.27;75.82
25232;BME280;13176;51.140;6.290;2022-10-28T00:36:47;101090.88;;;20.30;75.87
25232;BME280;13176;51.140;6.290;2022-10-28T00:39:16;101105.63;;;20.36;76.17
25232;BME280;13176;51.140;6.290;2022-10-28T00:41:46;101117.97;;;20.37;76.27
25232;BME280;13176;51.140;6.290;2022-10-28T00:52:34;101064.66;;;20.06;75.70
25232;BME280;13176;51.140;6.290;2022-10-28T00:55:02;101061.44;;;19.99;75.67
25232;BME280;13176;51.140;6.290;2022-10-28T00:57:34;101098.59;;;20.16;75.84
25232;BME280;13176;51.140;6.290;2022-10-28T01:00:04;101117.69;;;20.24;76.02
25232;BME280;13176;51.140;6.290;2022-10-28T01:02:34;101127.72;;;20.18;75.93
25232;BME280;13176;51.140;6.290;2022-10-28T01:05:04;101084.66;;;19.93;75.98
25232;BME280;13176;51.140;6.290;2022-10-28T01:07:31;101101.44;;;19.93;76.07
25232;BME280;13176;51.140;6.290;2022-10-28T01:09:57;101103.56;;;19.85;76.13
25232;BME280;13176;51.140;6.290;2022-10-28T01:15:24;101128.19;;;19.87;76.60
25232;BME280;13176;51.140;6.290;2022-10-28T01:18:11;101122.25;;;19.82;76.33
25232;BME280;13176;51.140;6.290;2022-10-28T01:24:00;101126.75;;;19.80;76.48
25232;BME280;13176;51.140;6.290;2022-10-28T01:26:50;101120.00;;;19.73;76.41
25232;BME280;13176;51.140;6.290;2022-10-28T01:29:43;101098.09;;;19.50;76.75
25232;BME280;13176;51.140;6.290;2022-10-28T01:32:54;101122.41;;;19.59;76.90
25232;BME280;13176;51.140;6.290;2022-10-28T01:43:15;101115.78;;;19.50;76.35
25232;BME280;13176;51.140;6.290;2022-10-28T01:46:13;101099.13;;;19.28;77.06
25232;BME280;13176;51.140;6.290;2022-10-28T01:51:16;101090.06;;;19.12;77.49
25232;BME280;13176;51.140;6.290;2022-10-28T01:53:47;101101.22;;;19.20;76.93
25232;BME280;13176;51.140;6.290;2022-10-28T01:56:16;101113.56;;;19.19;77.10
25232;BME280;13176;51.140;6.290;2022-10-28T01:58:46;101079.19;;;18.98;77.15
25232;BME280;13176;51.140;6.290;2022-10-28T02:01:13;101085.81;;;19.08;76.95
25232;BME280;13176;51.140;6.290;2022-10-28T02:03:41;101102.94;;;19.21;77.37
25232;BME280;13176;51.140;6.290;2022-10-28T02:06:15;101060.88;;;18.93;77.40
25232;BME280;13176;51.140;6.290;2022-10-28T02:08:53;101095.94;;;19.20;77.44
25232;BME280;13176;51.140;6.290;2022-10-28T02:16:37;101077.84;;;19.09;77.36
25232;BME280;13176;51.140;6.290;2022-10-28T02:19:21;101091.34;;;19.23;77.60
25232;BME280;13176;51.140;6.290;2022-10-28T02:24:39;101085.09;;;19.26;77.45
25232;BME280;13176;51.140;6.290;2022-10-28T02:27:19;101069.63;;;19.15;77.21
25232;BME280;13176;51.140;6.290;2022-10-28T02:29:56;101064.31;;;19.17;77.09
25232;BME280;13176;51.140;6.290;2022-10-28T02:32:27;101042.78;;;19.04;77.34
25232;BME280;13176;51.140;6.290;2022-10-28T02:34:57;101081.66;;;19.24;77.34
25232;BME280;13176;51.140;6.290;2022-10-28T02:37:28;101019.81;;;18.85;77.26
25232;BME280;13176;51.140;6.290;2022-10-28T02:39:58;101083.75;;;19.16;77.39
25232;BME280;13176;51.140;6.290;2022-10-28T02:42:32;101038.31;;;18.85;77.47
25232;BME280;13176;51.140;6.290;2022-10-28T02:45:11;101051.41;;;18.88;77.98
25232;BME280;13176;51.140;6.290;2022-10-28T02:47:45;101056.84;;;18.85;77.73
25232;BME280;13176;51.140;6.290;2022-10-28T02:50:17;101035.50;;;18.68;77.86
25232;BME280;13176;51.140;6.290;2022-10-28T02:52:48;101072.28;;;18.94;77.57
25232;BME280;13176;51.140;6.290;2022-10-28T02:55:18;101034.13;;;18.79;77.58
25232;BME280;13176;51.140;6.290;2022-10-28T02:57:47;101039.97;;;18.87;77.57
25232;BME280;13176;51.140;6.290;2022-10-28T03:00:17;101056.16;;;19.00;77.40
25232;BME280;13176;51.140;6.290;2022-10-28T03:02:44;101023.13;;;18.90;77.29
25232;BME280;13176;51.140;6.290;2022-10-28T03:05:10;101057.63;;;19.07;77.01
25232;BME280;13176;51.140;6.290;2022-10-28T03:07:37;101058.69;;;19.03;77.08
25232;BME280;13176;51.140;6.290;2022-10-28T03:10:03;101045.47;;;18.83;77.27
25232;BME280;13176;51.140;6.290;2022-10-28T03:12:30;101048.22;;;18.80;77.82
25232;BME280;13176;51.140;6.290;2022-10-28T03:14:56;101022.28;;;18.68;78.31
25232;BME280;13176;51.140;6.290;2022-10-28T03:17:22;101009.63;;;18.54;77.59
25232;BME280;13176;51.140;6.290;2022-10-28T03:19:49;101012.47;;;18.50;78.02
25232;BME280;13176;51.140;6.290;2022-10-28T03:22:15;101058.97;;;18.75;78.18
25232;BME280;13176;51.140;6.290;2022-10-28T03:24:41;101030.41;;;18.63;78.62
25232;BME280;13176;51.140;6.290;2022-10-28T03:27:08;101043.06;;;18.77;78.80
25232;BME280;13176;51.140;6.290;2022-10-28T03:29:34;101006.66;;;18.62;78.21
25232;BME280;13176;51.140;6.290;2022-10-28T03:32:00;101047.72;;;18.92;78.08
25232;BME280;13176;51.140;6.290;2022-10-28T03:34:27;101018.38;;;18.76;77.92
25232;BME280;13176;51.140;6.290;2022-10-28T03:36:53;101006.53;;;18.65;78.05
25232;BME280;13176;51.140;6.290;2022-10-28T03:39:20;101042.81;;;18.83;78.08
25232;BME280;13176;51.140;6.290;2022-10-28T03:41:46;101013.97;;;18.57;78.06
25232;BME280;13176;51.140;6.290;2022-10-28T03:44:13;100992.13;;;18.52;77.85
25232;BME280;13176;51.140;6.290;2022-10-28T03:46:39;101038.03;;;18.71;78.09
25232;BME280;13176;51.140;6.290;2022-10-28T03:49:05;101037.44;;;18.64;78.06
25232;BME280;13176;51.140;6.290;2022-10-28T03:51:32;101023.19;;;18.47;78.40
25232;BME280;13176;51.140;6.290;2022-10-28T03:53:58;101035.34;;;18.51;78.10
25232;BME280;13176;51.140;6.290;2022-10-28T03:56:24;101027.66;;;18.45;78.30
25232;BME280;13176;51.140;6.290;2022-10-28T03:58:51;101029.75;;;18.37;78.29
25232;BME280;13176;51.140;6.290;2022-10-28T04:01:22;101042.34;;;18.31;78.63
25232;BME280;13176;51.140;6.290;2022-10-28T04:03:49;101018.53;;;18.09;78.65
25232;BME280;13176;51.140;6.290;2022-10-28T04:06:15;101041.94;;;18.18;79.09
25232;BME280;13176;51.140;6.290;2022-10-28T04:08:42;101032.31;;;18.17;78.86
25232;BME280;13176;51.140;6.290;2022-10-28T04:11:08;101028.75;;;18.18;78.69
25232;BME280;13176;51.140;6.290;2022-10-28T04:13:35;101027.66;;;18.22;78.60
25232;BME280;13176;51.140;6.290;2022-10-28T04:16:01;101036.16;;;18.32;78.11
25232;BME280;13176;51.140;6.290;2022-10-28T04:18:27;101018.09;;;18.20;78.25
25232;BME280;13176;51.140;6.290;2022-10-28T04:20:54;101027.66;;;18.22;78.47
25232;BME280;13176;51.140;6.290;2022-10-28T04:23:20;101003.59;;;18.08;78.49
25232;BME280;13176;51.140;6.290;2022-10-28T04:25:50;101027.75;;;18.21;78.01
25232;BME280;13176;51.140;6.290;2022-10-28T04:28:17;100965.06;;;17.81;78.17
25232;BME280;13176;51.140;6.290;2022-10-28T04:30:45;101042.97;;;18.37;78.04
25232;BME280;13176;51.140;6.290;2022-10-28T04:33:12;101051.44;;;18.45;78.08
25232;BME280;13176;51.140;6.290;2022-10-28T04:35:39;101008.41;;;18.20;78.13
25232;BME280;13176;51.140;6.290;2022-10-28T04:38:09;101052.94;;;18.52;78.35
25232;BME280;13176;51.140;6.290;2022-10-28T04:40:36;101035.63;;;18.43;78.28
25232;BME280;13176;51.140;6.290;2022-10-28T04:43:02;101046.09;;;18.46;78.24
25232;BME280;13176;51.140;6.290;2022-10-28T04:45:32;101033.88;;;18.44;78.21
25232;BME280;13176;51.140;6.290;2022-10-28T04:47:59;101032.38;;;18.37;78.34
25232;BME280;13176;51.140;6.290;2022-10-28T04:50:26;101010.06;;;18.23;78.17
25232;BME280;13176;51.140;6.290;2022-10-28T04:52:53;101035.28;;;18.31;78.42
25232;BME280;13176;51.140;6.290;2022-10-28T04:55:20;101032.75;;;18.28;78.17
25232;BME280;13176;51.140;6.290;2022-10-28T04:57:57;101056.63;;;18.48;78.09
25232;BME280;13176;51.140;6.290;2022-10-28T05:00:25;101039.53;;;18.35;78.03
25232;BME280;13176;51.140;6.290;2022-10-28T05:02:52;101039.53;;;18.35;77.67
25232;BME280;13176;51.140;6.290;2022-10-28T05:05:20;101055.25;;;18.38;78.30
25232;BME280;13176;51.140;6.290;2022-10-28T05:07:46;101031.09;;;18.26;78.17
25232;BME280;13176;51.140;6.290;2022-10-28T05:10:13;101061.22;;;18.43;78.27
25232;BME280;13176;51.140;6.290;2022-10-28T05:12:44;101062.16;;;18.42;78.36
25232;BME280;13176;51.140;6.290;2022-10-28T05:15:12;101061.34;;;18.40;78.51
25232;BME280;13176;51.140;6.290;2022-10-28T05:17:40;101062.16;;;18.42;78.54
25232;BME280;13176;51.140;6.290;2022-10-28T05:20:08;101044.00;;;18.33;78.31
25232;BME280;13176;51.140;6.290;2022-10-28T05:22:35;101012.09;;;18.16;78.80
25232;BME280;13176;51.140;6.290;2022-10-28T05:25:02;101038.03;;;18.28;78.56
25232;BME280;13176;51.140;6.290;2022-10-28T05:27:28;100978.41;;;18.00;78.66
25232;BME280;13176;51.140;6.290;2022-10-28T05:29:55;101014.03;;;18.11;79.25
25232;BME280;13176;51.140;6.290;2022-10-28T05:32:21;101024.41;;;18.16;79.45
25232;BME280;13176;51.140;6.290;2022-10-28T05:34:48;100933.50;;;17.55;79.36
25232;BME280;13176;51.140;6.290;2022-10-28T05:37:14;100955.53;;;17.77;79.71
25232;BME280;13176;51.140;6.290;2022-10-28T05:39:40;100999.53;;;18.00;79.62
25232;BME280;13176;51.140;6.290;2022-10-28T05:42:06;101043.69;;;18.19;79.39
25232;BME280;13176;51.140;6.290;2022-10-28T05:44:33;100962.59;;;17.77;79.59
25232;BME280;13176;51.140;6.290;2022-10-28T05:46:59;101049.53;;;18.27;79.61
25232;BME280;13176;51.140;6.290;2022-10-28T05:49:25;100993.63;;;17.93;79.66
25232;BME280;13176;51.140;6.290;2022-10-28T05:51:52;101028.28;;;18.07;79.92
25232;BME280;13176;51.140;6.290;2022-10-28T05:54:18;100927.44;;;17.53;79.60
25232;BME280;13176;51.140;6.290;2022-10-28T05:56:44;101048.97;;;18.19;79.77
25232;BME280;13176;51.140;6.290;2022-10-28T05:59:11;101030.00;;;18.08;79.94
25232;BME280;13176;51.140;6.290;2022-10-28T06:01:38;101025.53;;;18.10;79.83
25232;BME280;13176;51.140;6.290;2022-10-28T06:04:04;101017.72;;;18.07;79.77
25232;BME280;13176;51.140;6.290;2022-10-28T06:06:31;101029.66;;;18.17;79.79
25232;BME280;13176;51.140;6.290;2022-10-28T06:08:58;101032.97;;;18.22;79.67
25232;BME280;13176;51.140;6.290;2022-10-28T06:11:24;101019.94;;;18.18;79.50
25232;BME280;13176;51.140;6.290;2022-10-28T06:13:51;101051.94;;;18.33;79.74
25232;BME280;13176;51.140;6.290;2022-10-28T06:16:17;100982.78;;;18.01;79.50
25232;BME280;13176;51.140;6.290;2022-10-28T06:18:43;101028.25;;;18.30;79.19
25232;BME280;13176;51.140;6.290;2022-10-28T06:21:10;101006.44;;;18.25;78.96
25232;BME280;13176;51.140;6.290;2022-10-28T06:23:36;101021.94;;;18.34;78.66
25232;BME280;13176;51.140;6.290;2022-10-28T06:26:03;101045.25;;;18.46;78.43
25232;BME280;13176;51.140;6.290;2022-10-28T06:28:30;101059.06;;;18.52;78.68
25232;BME280;13176;51.140;6.290;2022-10-28T06:31:04;101010.91;;;18.23;78.89
25232;BME280;13176;51.140;6.290;2022-10-28T06:33:30;101064.56;;;18.48;79.28
25232;BME280;13176;51.140;6.290;2022-10-28T06:35:59;101062.81;;;18.47;79.57
25232;BME280;13176;51.140;6.290;2022-10-28T06:38:26;101041.34;;;18.33;79.52
25232;BME280;13176;51.140;6.290;2022-10-28T06:40:56;100951.88;;;17.81;79.61
25232;BME280;13176;51.140;6.290;2022-10-28T06:43:22;101027.59;;;18.25;79.67
25232;BME280;13176;51.140;6.290;2022-10-28T06:45:48;101020.66;;;18.21;80.09
25232;BME280;13176;51.140;6.290;2022-10-28T06:48:20;101002.44;;;18.15;80.10
25232;BME280;13176;51.140;6.290;2022-10-28T06:50:46;101068.78;;;18.52;80.21
25232;BME280;13176;51.140;6.290;2022-10-28T06:53:12;100969.97;;;17.90;80.00
25232;BME280;13176;51.140;6.290;2022-10-28T06:55:39;101021.63;;;18.20;79.92
25232;BME280;13176;51.140;6.290;2022-10-28T06:58:05;100990.28;;;18.11;80.01
25232;BME280;13176;51.140;6.290;2022-10-28T07:00:32;101068.69;;;18.55;80.17
25232;BME280;13176;51.140;6.290;2022-10-28T07:02:58;101025.50;;;18.33;80.02
25232;BME280;13176;51.140;6.290;2022-10-28T07:05:26;101059.94;;;18.53;79.94
25232;BME280;13176;51.140;6.290;2022-10-28T07:07:53;101039.28;;;18.41;80.01
25232;BME280;13176;51.140;6.290;2022-10-28T07:10:19;101053.78;;;18.52;80.23
25232;BME280;13176;51.140;6.290;2022-10-28T07:12:46;101053.63;;;18.57;80.20
25232;BME280;13176;51.140;6.290;2022-10-28T07:15:12;101052.41;;;18.64;79.89
25232;BME280;13176;51.140;6.290;2022-10-28T07:17:39;101033.50;;;18.53;79.67
25232;BME280;13176;51.140;6.290;2022-10-28T07:20:05;101034.09;;;18.59;79.39
25232;BME280;13176;51.140;6.290;2022-10-28T07:22:32;101064.22;;;18.77;79.39
25232;BME280;13176;51.140;6.290;2022-10-28T07:24:58;101036.56;;;18.64;79.17
25232;BME280;13176;51.140;6.290;2022-10-28T07:27:25;101048.47;;;18.74;79.08
25232;BME280;13176;51.140;6.290;2022-10-28T07:29:51;101052.72;;;18.78;78.59
25232;BME280;13176;51.140;6.290;2022-10-28T07:32:17;101085.53;;;18.94;78.57
25232;BME280;13176;51.140;6.290;2022-10-28T07:34:44;101070.53;;;18.94;78.43
25232;BME280;13176;51.140;6.290;2022-10-28T07:37:10;101065.13;;;18.97;78.62
25232;BME280;13176;51.140;6.290;2022-10-28T07:39:38;101079.72;;;19.06;78.99
25232;BME280;13176;51.140;6.290;2022-10-28T07:42:04;101106.75;;;19.34;79.52
25232;BME280;13176;51.140;6.290;2022-10-28T07:44:30;101092.81;;;19.30;79.06
25232;BME280;13176;51.140;6.290;2022-10-28T07:46:57;101088.09;;;19.37;78.69
25232;BME280;13176;51.140;6.290;2022-10-28T07:49:23;101056.50;;;19.14;78.83
25232;BME280;13176;51.140;6.290;2022-10-28T07:51:50;101058.75;;;19.23;78.57
25232;BME280;13176;51.140;6.290;2022-10-28T07:54:16;101087.31;;;19.35;78.73
25232;BME280;13176;51.140;6.290;2022-10-28T07:56:43;101071.50;;;19.33;78.80
25232;BME280;13176;51.140;6.290;2022-10-28T07:59:09;101036.22;;;19.13;79.06
25232;BME280;13176;51.140;6.290;2022-10-28T08:01:35;101077.53;;;19.37;79.16
25232;BME280;13176;51.140;6.290;2022-10-28T08:04:02;101070.94;;;19.27;79.38
25232;BME280;13176;51.140;6.290;2022-10-28T08:06:29;101040.78;;;19.09;79.40
25232;BME280;13176;51.140;6.290;2022-10-28T08:08:56;101057.03;;;19.22;79.29
25232;BME280;13176;51.140;6.290;2022-10-28T08:11:22;101075.53;;;19.42;79.66
25232;BME280;13176;51.140;6.290;2022-10-28T08:13:50;101069.06;;;19.49;79.39
25232;BME280;13176;51.140;6.290;2022-10-28T08:16:17;101093.50;;;19.73;79.09
25232;BME280;13176;51.140;6.290;2022-10-28T08:18:43;101066.31;;;19.70;78.79
25232;BME280;13176;51.140;6.290;2022-10-28T08:21:12;101078.09;;;19.83;79.59
25232;BME280;13176;51.140;6.290;2022-10-28T08:23:39;101089.13;;;19.92;79.58
25232;BME280;13176;51.140;6.290;2022-10-28T08:26:07;101087.00;;;20.00;79.10
25232;BME280;13176;51.140;6.290;2022-10-28T08:28:33;101085.16;;;20.02;79.25
25232;BME280;13176;51.140;6.290;2022-10-28T08:31:01;101079.41;;;20.11;78.89
25232;BME280;13176;51.140;6.290;2022-10-28T08:33:42;100996.00;;;19.63;78.48
25232;BME280;13176;51.140;6.290;2022-10-28T08:36:12;101074.25;;;20.08;78.24
25232;BME280;13176;51.140;6.290;2022-10-28T08:38:39;101051.19;;;20.10;78.27
25232;BME280;13176;51.140;6.290;2022-10-28T08:49:18;101068.94;;;20.45;78.15
25232;BME280;13176;51.140;6.290;2022-10-28T08:51:52;101072.56;;;20.61;78.62
25232;BME280;13176;51.140;6.290;2022-10-28T08:54:27;101070.41;;;20.69;77.46
25232;BME280;13176;51.140;6.290;2022-10-28T08:56:57;101065.44;;;20.80;77.68
25232;BME280;13176;51.140;6.290;2022-10-28T08:59:34;101083.44;;;21.09;76.22
25232;BME280;13176;51.140;6.290;2022-10-28T09:02:19;101037.53;;;21.07;76.23
25232;BME280;13176;51.140;6.290;2022-10-28T09:04:53;101042.34;;;21.16;75.10
25232;BME280;13176;51.140;6.290;2022-10-28T09:07:23;101054.06;;;21.29;75.78
25232;BME280;13176;51.140;6.290;2022-10-28T09:09:51;101057.34;;;21.34;75.21
25232;BME280;13176;51.140;6.290;2022-10-28T09:12:52;101056.16;;;21.39;74.18
25232;BME280;13176;51.140;6.290;2022-10-28T09:18:07;101044.75;;;21.54;74.01
25232;BME280;13176;51.140;6.290;2022-10-28T09:21:04;101081.22;;;21.85;73.78
25232;BME280;13176;51.140;6.290;2022-10-28T09:23:57;101060.88;;;21.84;72.87
25232;BME280;13176;51.140;6.290;2022-10-28T09:29:27;101082.81;;;22.19;71.96
25232;BME280;13176;51.140;6.290;2022-10-28T09:32:17;101078.69;;;22.29;71.83
25232;BME280;13176;51.140;6.290;2022-10-28T09:34:53;101068.47;;;22.22;70.86
25232;BME280;13176;51.140;6.290;2022-10-28T09:37:34;101081.75;;;22.39;71.09
25232;BME280;13176;51.140;6.290;2022-10-28T09:40:23;101042.16;;;22.17;70.25
25232;BME280;13176;51.140;6.290;2022-10-28T09:45:44;101037.66;;;22.33;69.93
25232;BME280;13176;51.140;6.290;2022-10-28T09:48:31;101092.00;;;22.91;69.44
25232;BME280;13176;51.140;6.290;2022-10-28T09:50:59;101101.31;;;22.98;69.36
25232;BME280;13176;51.140;6.290;2022-10-28T09:53:42;101046.03;;;22.88;68.01
25232;BME280;13176;51.140;6.290;2022-10-28T09:56:10;101038.28;;;22.99;67.70
25232;BME280;13176;51.140;6.290;2022-10-28T09:58:39;101063.59;;;23.21;67.73
25232;BME280;13176;51.140;6.290;2022-10-28T10:01:09;101044.84;;;23.07;67.87
25232;BME280;13176;51.140;6.290;2022-10-28T10:03:36;101040.47;;;23.06;68.55
25232;BME280;13176;51.140;6.290;2022-10-28T10:06:13;101076.91;;;23.35;67.95
25232;BME280;13176;51.140;6.290;2022-10-28T10:08:40;101092.94;;;23.49;67.33
25232;BME280;13176;51.140;6.290;2022-10-28T10:13:56;101073.44;;;24.99;62.15
25232;BME280;13176;51.140;6.290;2022-10-28T10:16:38;101071.22;;;25.44;60.89
25232;BME280;13176;51.140;6.290;2022-10-28T10:19:08;101000.84;;;25.31;59.64
25232;BME280;13176;51.140;6.290;2022-10-28T10:21:52;101041.91;;;25.30;60.20
25232;BME280;13176;51.140;6.290;2022-10-28T10:24:30;101034.91;;;24.76;61.25
25232;BME280;13176;51.140;6.290;2022-10-28T10:29:36;101066.38;;;25.24;60.48
25232;BME280;13176;51.140;6.290;2022-10-28T10:32:24;101063.97;;;25.46;60.88
25232;BME280;13176;51.140;6.290;2022-10-28T10:35:01;101073.78;;;25.58;60.58
25232;BME280;13176;51.140;6.290;2022-10-28T10:37:32;101069.81;;;25.51;59.59
25232;BME280;13176;51.140;6.290;2022-10-28T10:41:03;101055.81;;;25.35;59.75
25232;BME280;13176;51.140;6.290;2022-10-28T10:45:51;101085.66;;;26.65;56.70
25232;BME280;13176;51.140;6.290;2022-10-28T10:48:18;101085.22;;;26.94;55.70
25232;BME280;13176;51.140;6.290;2022-10-28T10:50:46;101088.38;;;27.11;55.42
25232;BME280;13176;51.140;6.290;2022-10-28T10:53:25;101070.72;;;27.65;53.34
25232;BME280;13176;51.140;6.290;2022-10-28T10:55:55;101073.00;;;28.04;51.79
25232;BME280;13176;51.140;6.290;2022-10-28T10:58:24;101066.72;;;28.58;50.31
25232;BME280;13176;51.140;6.290;2022-10-28T11:00:54;101059.88;;;28.97;49.26
25232;BME280;13176;51.140;6.290;2022-10-28T11:03:39;101072.72;;;29.24;49.35
25232;BME280;13176;51.140;6.290;2022-10-28T11:06:20;101075.72;;;29.11;48.99
25232;BME280;13176;51.140;6.290;2022-10-28T11:08:55;101049.97;;;28.66;49.77
25232;BME280;13176;51.140;6.290;2022-10-28T11:11:32;101064.94;;;28.26;50.77
25232;BME280;13176;51.140;6.290;2022-10-28T11:14:28;101064.69;;;27.96;51.72
25232;BME280;13176;51.140;6.290;2022-10-28T11:17:00;101068.53;;;27.59;52.88
25232;BME280;13176;51.140;6.290;2022-10-28T11:19:28;101023.88;;;27.47;53.02
25232;BME280;13176;51.140;6.290;2022-10-28T11:25:18;101053.16;;;28.49;51.29
25232;BME280;13176;51.140;6.290;2022-10-28T11:33:20;101028.50;;;29.58;48.35
25232;BME280;13176;51.140;6.290;2022-10-28T11:38:44;101044.03;;;30.44;46.71
25232;BME280;13176;51.140;6.290;2022-10-28T11:41:24;101041.41;;;30.54;46.62
25232;BME280;13176;51.140;6.290;2022-10-28T11:43:56;101046.44;;;30.38;45.64
25232;BME280;13176;51.140;6.290;2022-10-28T11:46:56;101033.47;;;29.83;48.20
25232;BME280;13176;51.140;6.290;2022-10-28T11:49:52;101033.41;;;29.53;47.61
25232;BME280;13176;51.140;6.290;2022-10-28T11:57:53;100983.56;;;29.09;45.68
25232;BME280;13176;51.140;6.290;2022-10-28T12:00:35;100993.34;;;29.30;44.27
25232;BME280;13176;51.140;6.290;2022-10-28T12:06:16;101014.56;;;28.50;45.46
25232;BME280;13176;51.140;6.290;2022-10-28T12:08:53;101009.25;;;28.17;45.47
25232;BME280;13176;51.140;6.290;2022-10-28T12:14:34;101005.06;;;27.36;46.39
25232;BME280;13176;51.140;6.290;2022-10-28T12:17:18;100951.06;;;26.84;47.23
25232;BME280;13176;51.140;6.290;2022-10-28T12:19:55;101011.28;;;27.02;47.05
25232;BME280;13176;51.140;6.290;2022-10-28T12:22:44;100996.50;;;26.86;48.32
25232;BME280;13176;51.140;6.290;2022-10-28T12:25:18;100998.66;;;26.70;48.25
25232;BME280;13176;51.140;6.290;2022-10-28T12:27:52;100973.59;;;26.59;48.07
25232;BME280;13176;51.140;6.290;2022-10-28T12:30:25;100998.97;;;26.66;48.51
25232;BME280;13176;51.140;6.290;2022-10-28T12:32:56;101024.19;;;26.97;48.31
25232;BME280;13176;51.140;6.290;2022-10-28T12:35:27;101014.72;;;27.04;46.87
25232;BME280;13176;51.140;6.290;2022-10-28T12:40:40;101018.34;;;26.92;47.40
25232;BME280;13176;51.140;6.290;2022-10-28T12:43:17;100976.56;;;26.67;47.01
25232;BME280;13176;51.140;6.290;2022-10-28T12:45:47;100996.72;;;27.06;47.26
25232;BME280;13176;51.140;6.290;2022-10-28T12:50:57;101023.44;;;27.19;46.39
25232;BME280;13176;51.140;6.290;2022-10-28T12:56:00;101000.44;;;27.27;45.01
25232;BME280;13176;51.140;6.290;2022-10-28T12:59:09;101023.84;;;27.36;44.89
25232;BME280;13176;51.140;6.290;2022-10-28T13:01:32;101029.66;;;27.19;45.22
25232;BME280;13176;51.140;6.290;2022-10-28T13:04:00;101027.03;;;27.30;45.18
25232;BME280;13176;51.140;6.290;2022-10-28T13:12:41;101040.44;;;27.41;45.68
25232;BME280;13176;51.140;6.290;2022-10-28T13:15:28;101036.44;;;27.47;45.48
25232;BME280;13176;51.140;6.290;2022-10-28T13:20:46;101050.84;;;27.11;45.91
25232;BME280;13176;51.140;6.290;2022-10-28T13:26:25;101030.50;;;26.85;45.55
25232;BME280;13176;51.140;6.290;2022-10-28T13:28:55;101004.00;;;26.70;45.61
25232;BME280;13176;51.140;6.290;2022-10-28T13:31:39;101006.25;;;26.87;45.32
25232;BME280;13176;51.140;6.290;2022-10-28T13:34:07;101030.72;;;26.82;45.26
25232;BME280;13176;51.140;6.290;2022-10-28T13:36:36;101037.09;;;26.92;45.40
25232;BME280;13176;51.140;6.290;2022-10-28T13:39:06;101055.59;;;26.95;45.60
25232;BME280;13176;51.140;6.290;2022-10-28T13:41:46;101040.91;;;26.54;46.07
25232;BME280;13176;51.140;6.290;2022-10-28T13:49:29;101055.44;;;26.63;46.91
25232;BME280;13176;51.140;6.290;2022-10-28T13:57:34;101080.53;;;26.62;46.96
25232;BME280;13176;51.140;6.290;2022-10-28T14:00:05;101075.16;;;26.62;47.53
25232;BME280;13176;51.140;6.290;2022-10-28T14:02:45;101060.34;;;26.45;47.58
25232;BME280;13176;51.140;6.290;2022-10-28T14:05:16;101076.97;;;26.25;47.52
25232;BME280;13176;51.140;6.290;2022-10-28T14:07:56;101087.91;;;26.22;48.91
25232;BME280;13176;51.140;6.290;2022-10-28T14:10:32;101074.88;;;26.18;47.68
25232;BME280;13176;51.140;6.290;2022-10-28T14:13:17;101062.22;;;26.07;47.80
25232;BME280;13176;51.140;6.290;2022-10-28T14:15:45;101083.84;;;26.17;48.26
25232;BME280;13176;51.140;6.290;2022-10-28T14:21:02;101095.59;;;26.27;48.43
25232;BME280;13176;51.140;6.290;2022-10-28T14:26:02;101089.78;;;26.33;48.70
25232;BME280;13176;51.140;6.290;2022-10-28T14:33:47;101087.56;;;26.27;49.56
25232;BME280;13176;51.140;6.290;2022-10-28T14:36:21;101113.81;;;26.34;49.71
25232;BME280;13176;51.140;6.290;2022-10-28T14:42:21;101129.66;;;26.12;50.40
25232;BME280;13176;51.140;6.290;2022-10-28T14:49:59;101119.81;;;25.88;49.31
25232;BME280;13176;51.140;6.290;2022-10-28T14:52:28;101141.22;;;25.88;49.50
25232;BME280;13176;51.140;6.290;2022-10-28T14:55:02;101129.41;;;25.53;49.89
25232;BME280;13176;51.140;6.290;2022-10-28T14:57:32;101120.53;;;25.65;49.72
25232;BME280;13176;51.140;6.290;2022-10-28T15:00:04;101155.84;;;25.70;49.77
25232;BME280;13176;51.140;6.290;2022-10-28T15:02:33;101144.59;;;25.52;50.28
25232;BME280;13176;51.140;6.290;2022-10-28T15:05:14;101147.16;;;25.54;50.28
25232;BME280;13176;51.140;6.290;2022-10-28T15:07:42;101131.22;;;25.52;50.16
25232;BME280;13176;51.140;6.290;2022-10-28T15:10:25;101148.88;;;25.55;51.10
25232;BME280;13176;51.140;6.290;2022-10-28T15:12:53;101153.81;;;25.61;51.00
25232;BME280;13176;51.140;6.290;2022-10-28T15:15:24;101150.75;;;25.41;51.45
25232;BME280;13176;51.140;6.290;2022-10-28T15:17:50;101154.16;;;25.30;52.59
25232;BME280;13176;51.140;6.290;2022-10-28T15:20:26;101154.00;;;25.19;51.81